Time;durP1;ratioP1;P1;durP2;ratioP2;P2;SDS_P1;SDS_P2;PMS_P1;PMS_P2;Temp;Humidity;BMP_temperature;BMP_pressure;BME280_temperature;BME280_humidity;BME280_pressure;Samples;Min_cycle;Max_cycle;Signal;HPM_P1;HPM_P2
2021/01/06 00:00:15;;;;;;;0.10;0.10;;;;;;;;;;5056524;28;20231;-72
2021/01/06 00:02:42;;;;;;;1.10;1.03;;;;;;;;;;5058428;28;20245;-69
2021/01/06 00:05:10;;;;;;;0.03;0.03;;;;;;;;;;5056923;28;20182;-68
2021/01/06 00:07:43;;;;;;;0.00;0.00;;;;;;;;;;5054665;28;20244;-71
2021/01/06 00:10:12;;;;;;;0.03;0.03;;;;;;;;;;5057536;28;20211;-70
2021/01/06 00:12:40;;;;;;;0.00;0.00;;;;;;;;;;5061219;28;20214;-70
2021/01/06 00:15:07;;;;;;;0.00;0.00;;;;;;;;;;5059266;28;20206;-71
2021/01/06 00:17:34;;;;;;;0.10;0.10;;;;;;;;;;5059964;28;20297;-69
2021/01/06 00:20:00;;;;;;;0.57;0.57;;;;;;;;;;5057684;28;20184;-69
2021/01/06 00:22:27;;;;;;;0.00;0.00;;;;;;;;;;5056956;28;20843;-69
2021/01/06 00:24:53;;;;;;;1.13;0.50;;;;;;;;;;5058797;28;20184;-72
2021/01/06 00:27:21;;;;;;;0.00;0.00;;;;;;;;;;5059889;28;20259;-70
2021/01/06 00:29:47;;;;;;;0.00;0.00;;;;;;;;;;5057337;28;20590;-71
2021/01/06 14:42:02;;;;;;;0.00;0.00;;;;;;;;;;5092665;28;20212;-64
2021/01/06 14:47:45;;;;;;;0.40;0.17;;;;;;;;;;5092765;28;20238;-64
2021/01/06 14:53:18;;;;;;;0.00;0.00;;;;;;;;;;5092859;28;20172;-63
2021/01/06 14:59:08;;;;;;;0.57;0.27;;;;;;;;;;5112161;28;20196;-63
2021/01/06 15:04:39;;;;;;;1.03;0.50;;;;;;;;;;5112267;28;20184;-63
2021/01/06 15:10:27;;;;;;;0.10;0.10;;;;;;;;;;5085696;28;20185;-65
2021/01/06 15:16:08;;;;;;;0.10;0.10;;;;;;;;;;5096518;28;20232;-66
2021/01/06 15:21:49;;;;;;;0.30;0.30;;;;;;;;;;5090840;28;20239;-66
2021/01/06 15:27:22;;;;;;;0.20;0.20;;;;;;;;;;5089782;28;20193;-66
2021/01/06 15:33:13;;;;;;;0.47;0.40;;;;;;;;;;5095129;22;20308;-71
2021/01/06 15:35:44;;;;;;;0.33;0.33;;;;;;;;;;5033071;28;20214;-65
2021/01/06 15:38:20;;;;;;;0.07;0.07;;;;;;;;;;5031804;28;20219;-67
2021/01/06 15:40:47;;;;;;;0.00;0.00;;;;;;;;;;5020674;28;21224;-67
2021/01/06 15:43:17;;;;;;;0.00;0.00;;;;;;;;;;5028658;28;20256;-65
2021/01/06 15:45:44;;;;;;;0.10;0.10;;;;;;;;;;5027656;28;20196;-65
2021/01/06 15:48:22;;;;;;;0.10;0.10;;;;;;;;;;5027099;28;21059;-65
2021/01/06 15:51:15;;;;;;;0.00;0.00;;;;;;;;;;5020301;28;20199;-67
2021/01/06 15:53:42;;;;;;;0.83;0.83;;;;;;;;;;5010340;28;20192;-66
2021/01/06 15:56:17;;;;;;;2.40;0.90;;;;;;;;;;5018960;28;20184;-67
2021/01/06 15:58:45;;;;;;;0.10;0.10;;;;;;;;;;5017500;28;20191;-68
2021/01/06 16:01:19;;;;;;;0.20;0.20;;;;;;;;;;5020927;28;20184;-67
2021/01/06 16:03:56;;;;;;;0.10;0.10;;;;;;;;;;5016656;28;20189;-65
2021/01/06 16:06:23;;;;;;;0.00;0.00;;;;;;;;;;5026159;28;20516;-70
2021/01/06 16:08:51;;;;;;;0.03;0.03;;;;;;;;;;5021247;28;20969;-68
2021/01/06 16:11:18;;;;;;;0.00;0.00;;;;;;;;;;5017964;28;21497;-68
2021/01/06 16:13:47;;;;;;;0.10;0.10;;;;;;;;;;5014303;28;20192;-68
2021/01/06 16:16:23;;;;;;;0.00;0.00;;;;;;;;;;5019371;28;20192;-68
2021/01/06 16:18:53;;;;;;;0.20;0.20;;;;;;;;;;5020287;28;20219;-69
2021/01/06 16:21:21;;;;;;;0.10;0.10;;;;;;;;;;5017954;28;20276;-70
2021/01/06 16:23:53;;;;;;;0.33;0.33;;;;;;;;;;5017252;28;20200;-66
2021/01/06 16:26:20;;;;;;;0.00;0.00;;;;;;;;;;5016736;28;20223;-68
2021/01/06 16:28:47;;;;;;;0.73;0.63;;;;;;;;;;5018088;28;20202;-70
2021/01/06 16:31:33;;;;;;;0.00;0.00;;;;;;;;;;5019060;28;20194;-68
2021/01/06 16:33:59;;;;;;;0.87;0.63;;;;;;;;;;5018308;28;20233;-67
2021/01/06 16:36:35;;;;;;;0.10;0.10;;;;;;;;;;5022041;28;20216;-70
2021/01/06 16:39:20;;;;;;;0.60;0.60;;;;;;;;;;5021646;28;20220;-70
2021/01/06 16:41:49;;;;;;;0.00;0.00;;;;;;;;;;5019663;28;20184;-68
2021/01/06 16:44:21;;;;;;;5.83;1.63;;;;;;;;;;5020082;28;20343;-67
2021/01/06 16:46:48;;;;;;;0.23;0.23;;;;;;;;;;5017718;28;20192;-66
2021/01/06 16:49:28;;;;;;;0.00;0.00;;;;;;;;;;5019201;28;20936;-75
2021/01/06 16:51:57;;;;;;;0.00;0.00;;;;;;;;;;5017031;28;20194;-70
2021/01/06 16:54:38;;;;;;;0.00;0.00;;;;;;;;;;5020262;28;20211;-69
2021/01/06 16:57:06;;;;;;;0.23;0.10;;;;;;;;;;5020422;28;20218;-68
2021/01/06 16:59:35;;;;;;;0.40;0.40;;;;;;;;;;5020420;28;20258;-69
2021/01/06 17:02:11;;;;;;;0.00;0.00;;;;;;;;;;5014855;28;20206;-72
2021/01/06 17:04:40;;;;;;;2.23;1.03;;;;;;;;;;5019104;28;20187;-69
2021/01/06 17:07:27;;;;;;;0.00;0.00;;;;;;;;;;5020498;28;20188;-72
2021/01/06 17:09:55;;;;;;;0.07;0.07;;;;;;;;;;5025608;28;20692;-69
2021/01/06 17:12:40;;;;;;;0.00;0.00;;;;;;;;;;5019737;28;20254;-73
2021/01/06 17:15:06;;;;;;;0.17;0.17;;;;;;;;;;5016433;28;20195;-75
2021/01/06 17:17:35;;;;;;;0.00;0.00;;;;;;;;;;5017482;28;20863;-75
2021/01/06 17:20:10;;;;;;;0.53;0.53;;;;;;;;;;5020216;28;20545;-73
2021/01/06 17:22:40;;;;;;;0.00;0.00;;;;;;;;;;5019361;28;20184;-73
2021/01/06 17:25:11;;;;;;;1.47;0.67;;;;;;;;;;5018996;28;20193;-76
2021/01/06 17:27:39;;;;;;;0.30;0.30;;;;;;;;;;5021193;28;20181;-74
2021/01/06 17:30:23;;;;;;;0.17;0.17;;;;;;;;;;5022100;28;20212;-64
2021/01/06 17:33:00;;;;;;;0.00;0.00;;;;;;;;;;5019161;28;20497;-75
2021/01/06 17:35:29;;;;;;;0.10;0.10;;;;;;;;;;5018493;28;20196;-75
2021/01/06 17:37:59;;;;;;;0.10;0.10;;;;;;;;;;5018966;28;20223;-75
2021/01/06 17:40:26;;;;;;;0.00;0.00;;;;;;;;;;5020208;28;20934;-74
2021/01/06 17:42:59;;;;;;;0.57;0.40;;;;;;;;;;5017741;28;20185;-74
2021/01/06 17:45:27;;;;;;;0.30;0.30;;;;;;;;;;5015951;28;20188;-64
2021/01/06 17:47:58;;;;;;;0.00;0.00;;;;;;;;;;5015306;28;20219;-65
2021/01/06 17:50:25;;;;;;;0.00;0.00;;;;;;;;;;5015293;28;20663;-66
2021/01/06 17:52:54;;;;;;;0.00;0.00;;;;;;;;;;5019197;28;20207;-65
2021/01/06 17:55:21;;;;;;;0.00;0.00;;;;;;;;;;5021583;28;20200;-66
2021/01/06 17:57:48;;;;;;;0.27;0.10;;;;;;;;;;5019520;28;20207;-66
2021/01/06 18:00:16;;;;;;;0.37;0.20;;;;;;;;;;5018228;28;20199;-67
2021/01/06 18:02:46;;;;;;;0.00;0.00;;;;;;;;;;5019115;28;20700;-73
2021/01/06 18:05:13;;;;;;;0.13;0.10;;;;;;;;;;5018438;28;20184;-70
2021/01/06 18:07:41;;;;;;;0.43;0.43;;;;;;;;;;5017406;28;20196;-72
2021/01/06 18:10:14;;;;;;;0.10;0.10;;;;;;;;;;5017151;28;20196;-72
2021/01/06 18:12:41;;;;;;;0.20;0.20;;;;;;;;;;5016184;28;20192;-65
2021/01/06 18:15:18;;;;;;;0.30;0.30;;;;;;;;;;5018704;28;20180;-75
2021/01/06 18:17:44;;;;;;;0.10;0.10;;;;;;;;;;5017078;28;20215;-73
2021/01/06 18:20:29;;;;;;;1.13;0.30;;;;;;;;;;5018366;28;20211;-73
2021/01/06 18:22:56;;;;;;;0.53;0.53;;;;;;;;;;5022400;28;20232;-73
2021/01/06 18:25:34;;;;;;;0.60;0.60;;;;;;;;;;5019351;28;20189;-73
2021/01/06 18:28:11;;;;;;;1.50;0.93;;;;;;;;;;5015640;28;20192;-69
2021/01/06 18:30:38;;;;;;;1.40;1.30;;;;;;;;;;5007742;28;20180;-71
2021/01/06 18:33:17;;;;;;;0.53;0.37;;;;;;;;;;5016756;28;20230;-69
2021/01/06 18:35:44;;;;;;;0.00;0.00;;;;;;;;;;5014280;28;20196;-71
2021/01/06 18:38:10;;;;;;;0.00;0.00;;;;;;;;;;5015988;28;20341;-72
2021/01/06 18:40:37;;;;;;;0.47;0.47;;;;;;;;;;5016626;28;20261;-74
2021/01/06 18:43:16;;;;;;;0.00;0.00;;;;;;;;;;5016990;28;20191;-70
2021/01/06 18:45:43;;;;;;;0.70;0.20;;;;;;;;;;5016303;28;20190;-71
2021/01/06 18:48:11;;;;;;;0.70;0.57;;;;;;;;;;5019984;28;20196;-74
2021/01/06 18:50:38;;;;;;;0.43;0.43;;;;;;;;;;5019220;28;20179;-75
2021/01/06 18:53:15;;;;;;;0.00;0.00;;;;;;;;;;5015175;28;20190;-73
2021/01/06 18:55:42;;;;;;;0.00;0.00;;;;;;;;;;5016298;28;20195;-73
2021/01/06 18:58:21;;;;;;;3.00;0.73;;;;;;;;;;5019945;28;20212;-73
2021/01/06 19:00:47;;;;;;;0.00;0.00;;;;;;;;;;5017388;28;20185;-75
2021/01/06 19:03:17;;;;;;;0.20;0.10;;;;;;;;;;5017517;28;20183;-73
2021/01/06 19:05:52;;;;;;;0.10;0.10;;;;;;;;;;5016598;28;20223;-72
2021/01/06 19:08:29;;;;;;;8.20;0.53;;;;;;;;;;5017196;28;20202;-72
2021/01/06 19:10:57;;;;;;;0.20;0.20;;;;;;;;;;5015206;28;20205;-74
2021/01/06 19:13:24;;;;;;;0.00;0.00;;;;;;;;;;5017785;28;20200;-72
2021/01/06 19:15:51;;;;;;;6.90;2.63;;;;;;;;;;5017354;28;20935;-80
2021/01/06 19:18:22;;;;;;;0.00;0.00;;;;;;;;;;5018534;28;20208;-80
2021/01/06 19:20:50;;;;;;;0.10;0.10;;;;;;;;;;5019322;28;20195;-67
2021/01/06 19:23:16;;;;;;;0.53;0.47;;;;;;;;;;5015284;28;20291;-67
2021/01/06 19:25:49;;;;;;;0.53;0.30;;;;;;;;;;5022184;28;20191;-69
2021/01/06 19:28:21;;;;;;;5.00;1.37;;;;;;;;;;5018000;28;20193;-68
2021/01/06 19:30:55;;;;;;;0.13;0.13;;;;;;;;;;5022070;28;20187;-69
2021/01/06 19:33:22;;;;;;;0.00;0.00;;;;;;;;;;5021509;28;20245;-73
2021/01/06 19:35:48;;;;;;;0.00;0.00;;;;;;;;;;5018335;28;20287;-70
2021/01/06 19:38:17;;;;;;;0.60;0.60;;;;;;;;;;5024969;28;20302;-67
2021/01/06 19:40:45;;;;;;;0.50;0.50;;;;;;;;;;5019343;28;20188;-69
2021/01/06 19:43:13;;;;;;;0.00;0.00;;;;;;;;;;5017517;28;20810;-69
2021/01/06 19:45:40;;;;;;;0.00;0.00;;;;;;;;;;5017673;28;20180;-71
2021/01/06 19:48:09;;;;;;;0.00;0.00;;;;;;;;;;5020033;28;20339;-68
2021/01/06 19:50:37;;;;;;;0.00;0.00;;;;;;;;;;5018202;28;20686;-66
2021/01/06 19:53:10;;;;;;;0.00;0.00;;;;;;;;;;5017097;28;20184;-67
2021/01/06 19:55:36;;;;;;;0.03;0.03;;;;;;;;;;5020062;28;20188;-66
2021/01/06 19:58:19;;;;;;;5.60;0.53;;;;;;;;;;5020756;28;20306;-74
2021/01/06 20:00:47;;;;;;;0.07;0.03;;;;;;;;;;5021665;28;20519;-66
2021/01/06 20:03:20;;;;;;;0.20;0.20;;;;;;;;;;5020453;28;20549;-67
2021/01/06 20:05:57;;;;;;;0.00;0.00;;;;;;;;;;5018861;28;20664;-66
2021/01/06 20:08:42;;;;;;;0.00;0.00;;;;;;;;;;5018567;28;20195;-75
2021/01/06 20:11:09;;;;;;;0.00;0.00;;;;;;;;;;5017828;28;20192;-76
2021/01/06 20:13:37;;;;;;;2.70;1.47;;;;;;;;;;5016900;28;20188;-69
2021/01/06 20:16:05;;;;;;;0.00;0.00;;;;;;;;;;5021452;28;20192;-69
2021/01/06 20:18:32;;;;;;;0.30;0.30;;;;;;;;;;5018007;28;20208;-69
2021/01/06 20:20:59;;;;;;;0.00;0.00;;;;;;;;;;5021088;28;20188;-69
2021/01/06 20:23:26;;;;;;;0.00;0.00;;;;;;;;;;5019276;28;20893;-69
2021/01/06 20:25:52;;;;;;;0.47;0.33;;;;;;;;;;5021814;28;20180;-68
2021/01/06 20:28:19;;;;;;;0.70;0.37;;;;;;;;;;5018529;28;20189;-70
2021/01/06 20:30:46;;;;;;;0.00;0.00;;;;;;;;;;5019721;28;20184;-69
2021/01/06 20:33:12;;;;;;;0.00;0.00;;;;;;;;;;5018157;28;20212;-69
2021/01/06 20:35:39;;;;;;;0.00;0.00;;;;;;;;;;5018140;28;20198;-69
2021/01/06 20:38:05;;;;;;;0.00;0.00;;;;;;;;;;5017798;28;20236;-69
2021/01/06 20:40:32;;;;;;;0.00;0.00;;;;;;;;;;5017987;28;20989;-73
2021/01/06 20:42:59;;;;;;;0.00;0.00;;;;;;;;;;5023464;28;20219;-72
2021/01/06 20:45:25;;;;;;;0.00;0.00;;;;;;;;;;5020684;28;20859;-72
2021/01/06 20:47:52;;;;;;;0.20;0.20;;;;;;;;;;5012410;28;20626;-73
2021/01/06 20:50:19;;;;;;;0.10;0.10;;;;;;;;;;5018805;28;20296;-67
2021/01/06 20:52:45;;;;;;;0.10;0.10;;;;;;;;;;5021788;28;20268;-74
2021/01/06 20:55:12;;;;;;;1.33;1.23;;;;;;;;;;5017711;28;20188;-74
2021/01/06 20:57:39;;;;;;;0.00;0.00;;;;;;;;;;5017760;28;20208;-72
2021/01/06 21:00:07;;;;;;;0.00;0.00;;;;;;;;;;5017501;28;20275;-67
2021/01/06 21:02:34;;;;;;;0.00;0.00;;;;;;;;;;5022052;28;20223;-75
2021/01/06 21:05:02;;;;;;;0.00;0.00;;;;;;;;;;5019341;28;20192;-67
2021/01/06 21:07:28;;;;;;;0.00;0.00;;;;;;;;;;5014157;28;20185;-73
2021/01/06 21:09:56;;;;;;;0.00;0.00;;;;;;;;;;5017630;28;21062;-74
2021/01/06 21:12:23;;;;;;;0.00;0.00;;;;;;;;;;5025336;28;20956;-69
2021/01/06 21:14:52;;;;;;;0.00;0.00;;;;;;;;;;5022252;28;20200;-73
2021/01/06 21:19:52;;;;;;;0.67;0.67;;;;;;;;;;5036150;28;20314;-67
2021/01/06 21:22:19;;;;;;;0.00;0.00;;;;;;;;;;5039185;28;20187;-66
2021/01/06 21:24:46;;;;;;;0.00;0.00;;;;;;;;;;5042363;28;20214;-67
2021/01/06 21:27:12;;;;;;;0.67;0.37;;;;;;;;;;5039664;28;20188;-65
2021/01/06 21:29:39;;;;;;;0.10;0.10;;;;;;;;;;5037883;28;20619;-67
2021/01/06 21:32:05;;;;;;;0.00;0.00;;;;;;;;;;5036482;28;20186;-66
2021/01/06 21:34:32;;;;;;;0.00;0.00;;;;;;;;;;5039587;28;20183;-67
2021/01/06 21:36:59;;;;;;;0.00;0.00;;;;;;;;;;5035182;28;20577;-66
2021/01/06 21:39:26;;;;;;;0.10;0.10;;;;;;;;;;5030117;28;20191;-68
2021/01/06 21:41:52;;;;;;;0.00;0.00;;;;;;;;;;5038156;28;20176;-64
2021/01/06 21:44:19;;;;;;;0.00;0.00;;;;;;;;;;5039421;28;20195;-66
2021/01/06 21:46:46;;;;;;;0.00;0.00;;;;;;;;;;5038378;28;20199;-67
2021/01/06 21:49:12;;;;;;;0.10;0.10;;;;;;;;;;5041975;28;20198;-68
2021/01/06 21:51:39;;;;;;;0.00;0.00;;;;;;;;;;5038721;28;20282;-69
2021/01/06 21:54:05;;;;;;;0.00;0.00;;;;;;;;;;5035018;28;20186;-69
2021/01/06 21:56:35;;;;;;;0.00;0.00;;;;;;;;;;5037315;28;20341;-69
2021/01/06 21:59:03;;;;;;;0.00;0.00;;;;;;;;;;5036972;28;20260;-67
2021/01/06 22:01:31;;;;;;;0.00;0.00;;;;;;;;;;5036934;28;20194;-67
2021/01/06 22:03:58;;;;;;;0.10;0.10;;;;;;;;;;5026116;28;20227;-68
2021/01/06 22:06:25;;;;;;;0.00;0.00;;;;;;;;;;5038750;28;20179;-69
2021/01/06 22:08:53;;;;;;;0.00;0.00;;;;;;;;;;5041281;28;20175;-70
2021/01/06 22:11:20;;;;;;;0.00;0.00;;;;;;;;;;5032277;28;20806;-69
2021/01/06 22:13:46;;;;;;;0.00;0.00;;;;;;;;;;5033268;28;20463;-68
2021/01/06 22:16:14;;;;;;;0.00;0.00;;;;;;;;;;5030798;28;20662;-67
2021/01/06 22:18:41;;;;;;;0.00;0.00;;;;;;;;;;5028966;28;20746;-70
2021/01/06 22:21:10;;;;;;;0.00;0.00;;;;;;;;;;5033818;28;20187;-68
2021/01/06 22:23:37;;;;;;;0.00;0.00;;;;;;;;;;5038325;28;20210;-69
2021/01/06 22:26:04;;;;;;;0.17;0.17;;;;;;;;;;5034219;28;20248;-67
2021/01/06 22:28:32;;;;;;;0.00;0.00;;;;;;;;;;5030583;28;20199;-68
2021/01/06 22:31:00;;;;;;;0.00;0.00;;;;;;;;;;5036552;28;20182;-69
2021/01/06 22:33:26;;;;;;;0.00;0.00;;;;;;;;;;5038925;28;20504;-67
2021/01/06 22:35:53;;;;;;;2.00;0.30;;;;;;;;;;5037991;28;20184;-64
2021/01/06 22:38:20;;;;;;;0.30;0.30;;;;;;;;;;5037081;28;21020;-69
2021/01/06 22:40:46;;;;;;;0.00;0.00;;;;;;;;;;5028820;28;20174;-66
2021/01/06 22:43:13;;;;;;;0.00;0.00;;;;;;;;;;5035477;28;20202;-66
2021/01/06 22:45:40;;;;;;;0.13;0.13;;;;;;;;;;5033090;28;20196;-68
2021/01/06 22:48:07;;;;;;;0.00;0.00;;;;;;;;;;5015213;28;20189;-68
2021/01/06 22:50:33;;;;;;;0.00;0.00;;;;;;;;;;5038109;28;20206;-65
2021/01/06 22:53:00;;;;;;;0.00;0.00;;;;;;;;;;5035854;28;20210;-67
2021/01/06 22:55:27;;;;;;;0.00;0.00;;;;;;;;;;5034486;28;20199;-67
2021/01/06 22:57:53;;;;;;;0.00;0.00;;;;;;;;;;5037086;28;20218;-70
2021/01/06 23:00:24;;;;;;;0.00;0.00;;;;;;;;;;5042600;28;20219;-69
2021/01/06 23:02:51;;;;;;;0.00;0.00;;;;;;;;;;5038486;28;20179;-68
2021/01/06 23:05:18;;;;;;;0.20;0.20;;;;;;;;;;5040115;28;20570;-68
2021/01/06 23:07:44;;;;;;;1.03;0.33;;;;;;;;;;5037454;28;20220;-70
2021/01/06 23:10:14;;;;;;;0.00;0.00;;;;;;;;;;5035663;28;20248;-70
2021/01/06 23:12:44;;;;;;;0.00;0.00;;;;;;;;;;5037816;28;20202;-68
2021/01/06 23:15:12;;;;;;;2.20;0.33;;;;;;;;;;5036259;28;20183;-67
2021/01/06 23:17:39;;;;;;;0.63;0.27;;;;;;;;;;5021871;28;20280;-68
2021/01/06 23:20:12;;;;;;;0.10;0.10;;;;;;;;;;5038698;28;20229;-70
2021/01/06 23:22:39;;;;;;;0.10;0.10;;;;;;;;;;5037571;28;20225;-70
2021/01/06 23:25:07;;;;;;;0.00;0.00;;;;;;;;;;5035469;28;20248;-66
2021/01/06 23:27:34;;;;;;;0.00;0.00;;;;;;;;;;5035711;28;20671;-66
2021/01/06 23:30:03;;;;;;;0.00;0.00;;;;;;;;;;5039528;28;20554;-67
2021/01/06 23:32:30;;;;;;;0.60;0.60;;;;;;;;;;5037166;28;20302;-70
2021/01/06 23:34:57;;;;;;;0.00;0.00;;;;;;;;;;5036645;28;20408;-70
2021/01/06 23:37:24;;;;;;;0.00;0.00;;;;;;;;;;5034218;28;20222;-69
2021/01/06 23:39:51;;;;;;;0.20;0.20;;;;;;;;;;5034241;28;20774;-67
2021/01/06 23:42:17;;;;;;;0.00;0.00;;;;;;;;;;5036022;28;20182;-66
2021/01/06 23:44:44;;;;;;;1.50;0.47;;;;;;;;;;5037045;28;20240;-70
2021/01/06 23:47:12;;;;;;;0.20;0.20;;;;;;;;;;5034938;28;20181;-67
2021/01/06 23:49:39;;;;;;;0.37;0.37;;;;;;;;;;5035688;28;20226;-69
2021/01/06 23:52:06;;;;;;;0.00;0.00;;;;;;;;;;5034152;28;20190;-67
2021/01/06 23:54:33;;;;;;;0.07;0.07;;;;;;;;;;5036395;28;20183;-67
2021/01/06 23:56:59;;;;;;;0.00;0.00;;;;;;;;;;5034716;28;20249;-69
2021/01/06 23:59:26;;;;;;;0.00;0.00;;;;;;;;;;5038600;28;20194;-68
